createdAt,value
2023-02-24T00:02:20.344Z,97978.66
2023-02-24T00:05:08.268Z,97969.13
2023-02-24T00:07:49.358Z,97965.20
2023-02-24T00:10:30.239Z,97960.81
2023-02-24T00:13:12.370Z,97950.61
2023-02-24T00:15:53.218Z,97950.91
2023-02-24T00:18:41.267Z,97949.17
2023-02-24T00:21:17.125Z,97944.65
2023-02-24T00:24:06.235Z,97943.45
2023-02-24T00:26:41.572Z,97942.78
2023-02-24T00:29:48.254Z,97938.89
2023-02-24T00:32:30.369Z,97934.59
2023-02-24T00:35:12.424Z,97927.88
2023-02-24T00:37:58.241Z,97920.44
2023-02-24T00:40:41.128Z,97916.98
2023-02-24T00:43:22.227Z,97919.55
2023-02-24T00:46:10.435Z,97919.30
2023-02-24T00:48:46.651Z,97917.55
2023-02-24T00:51:37.228Z,97917.22
2023-02-24T00:54:15.235Z,97915.45
2023-02-24T00:57:03.219Z,97913.26
2023-02-24T00:59:45.219Z,97909.38
2023-02-24T01:02:26.978Z,97905.14
2023-02-24T01:05:16.214Z,97905.67
2023-02-24T01:07:59.343Z,97897.19
2023-02-24T01:11:14.285Z,97893.89
2023-02-24T01:14:02.330Z,97890.08
2023-02-24T01:16:37.471Z,97887.33
2023-02-24T01:19:27.220Z,97890.16
2023-02-24T01:22:09.348Z,97887.34
2023-02-24T01:25:04.240Z,97887.23
2023-02-24T01:27:52.227Z,97886.59
2023-02-24T01:30:27.380Z,97881.10
2023-02-24T01:33:15.246Z,97881.74
2023-02-24T01:35:50.352Z,97878.87
2023-02-24T01:38:38.208Z,97872.02
2023-02-24T01:41:16.537Z,97874.27
2023-02-24T01:44:05.216Z,97867.96
2023-02-24T01:46:41.387Z,97866.05
2023-02-24T01:49:45.222Z,97860.96
2023-02-24T01:52:30.751Z,97856.48
2023-02-24T01:55:27.212Z,97857.33
2023-02-24T01:58:04.829Z,97855.59
2023-02-24T02:00:54.249Z,97854.75
2023-02-24T02:03:38.212Z,97851.31
2023-02-24T02:06:33.224Z,97850.45
2023-02-24T02:09:22.226Z,97850.76
2023-02-24T02:12:04.204Z,97850.27
2023-02-24T02:15:02.233Z,97848.38
2023-02-24T02:18:02.222Z,97844.73
2023-02-24T02:21:09.011Z,97839.30
2023-02-24T02:24:11.218Z,97835.56
2023-02-24T02:27:36.230Z,97833.98
2023-02-24T02:30:36.265Z,97830.89
2023-02-24T02:33:52.220Z,97829.39
2023-02-24T02:36:58.270Z,97822.58
2023-02-24T02:40:23.306Z,97819.23
2023-02-24T02:43:17.558Z,97814.60
2023-02-24T02:46:16.356Z,97813.16
2023-02-24T02:48:58.361Z,97808.81
2023-02-24T02:51:55.215Z,97811.04
2023-02-24T02:54:33.345Z,97807.80
2023-02-24T02:57:25.225Z,97806.31
2023-02-24T03:00:11.731Z,97806.55
2023-02-24T03:03:04.194Z,97802.65
2023-02-24T03:05:46.682Z,97802.76
2023-02-24T03:08:37.273Z,97800.47
2023-02-24T03:11:22.401Z,97796.80
2023-02-24T03:14:12.217Z,97791.66
2023-02-24T03:16:56.208Z,97790.52
2023-02-24T03:19:46.211Z,97791.08
2023-02-24T03:22:44.206Z,97791.60
2023-02-24T03:25:28.940Z,97790.09
2023-02-24T03:28:24.298Z,97785.17
2023-02-24T03:31:07.474Z,97782.31
2023-02-24T03:34:18.212Z,97777.74
2023-02-24T03:36:54.663Z,97775.91
2023-02-24T03:39:43.228Z,97778.11
2023-02-24T03:42:19.248Z,97771.41
2023-02-24T03:45:07.216Z,97767.64
2023-02-24T03:47:41.822Z,97768.69
2023-02-24T03:50:38.269Z,97767.17
2023-02-24T03:53:22.732Z,97762.77
2023-02-24T03:56:18.239Z,97759.92
2023-02-24T03:59:18.974Z,97753.86
2023-02-24T04:02:32.232Z,97749.56
2023-02-24T04:05:15.701Z,97747.46
2023-02-24T04:08:14.219Z,97743.67
2023-02-24T04:10:54.879Z,97739.46
2023-02-24T04:13:57.201Z,97734.81
2023-02-24T04:16:40.971Z,97733.69
2023-02-24T04:19:34.206Z,97733.40
2023-02-24T04:22:32.181Z,97729.64
2023-02-24T04:25:31.202Z,97726.25
2023-02-24T04:28:13.696Z,97720.56
2023-02-24T04:31:04.284Z,97714.15
2023-02-24T04:33:38.960Z,97711.11
2023-02-24T04:36:27.199Z,97712.05
2023-02-24T04:39:01.699Z,97707.20
2023-02-24T04:41:50.300Z,97702.60
2023-02-24T04:44:26.256Z,97694.60
2023-02-24T04:47:14.197Z,97697.29
2023-02-24T04:49:55.209Z,97693.70
2023-02-24T04:52:36.320Z,97690.52
2023-02-24T04:55:17.192Z,97691.55
2023-02-24T04:58:04.341Z,97684.71
2023-02-24T05:00:48.188Z,97683.08
2023-02-24T05:03:31.335Z,97679.95
2023-02-24T05:06:13.215Z,97678.34
2023-02-24T05:08:54.332Z,97675.83
2023-02-24T05:11:41.192Z,97668.81
2023-02-24T05:14:25.234Z,97662.05
2023-02-24T05:17:13.201Z,97659.77
2023-02-24T05:20:13.188Z,97657.05
2023-02-24T05:23:01.195Z,97652.23
2023-02-24T05:25:37.983Z,97653.14
2023-02-24T05:28:29.196Z,97649.65
2023-02-24T05:31:22.503Z,97647.87
2023-02-24T05:34:00.356Z,97648.58
2023-02-24T05:36:53.203Z,97648.64
2023-02-24T05:39:35.221Z,97648.95
2023-02-24T05:42:17.407Z,97646.80
2023-02-24T05:44:58.184Z,97642.09
2023-02-24T05:47:40.319Z,97641.44
2023-02-24T05:50:21.240Z,97636.87
2023-02-24T05:53:03.647Z,97637.70
2023-02-24T05:55:45.189Z,97638.00
2023-02-24T05:58:29.252Z,97633.57
2023-02-24T06:01:23.271Z,97630.34
2023-02-24T06:04:14.176Z,97631.71
2023-02-24T06:06:55.246Z,97632.56
2023-02-24T06:09:47.187Z,97623.65
2023-02-24T06:12:23.440Z,97620.52
2023-02-24T06:15:14.228Z,97619.98
2023-02-24T06:18:09.165Z,97615.64
2023-02-24T06:20:58.190Z,97611.74
2023-02-24T06:23:56.179Z,97609.09
2023-02-24T06:26:50.198Z,97603.91
2023-02-24T06:29:29.847Z,97601.78
2023-02-24T06:32:19.294Z,97599.30
2023-02-24T06:34:54.364Z,97599.39
2023-02-24T06:37:42.336Z,97595.92
2023-02-24T06:40:18.392Z,97592.43
2023-02-24T06:43:06.236Z,97593.30
2023-02-24T06:45:48.202Z,97595.23
2023-02-24T06:48:43.181Z,97592.92
2023-02-24T06:51:31.158Z,97590.20
2023-02-24T06:54:06.451Z,97592.98
2023-02-24T06:56:54.185Z,97591.92
2023-02-24T06:59:35.186Z,97595.20
2023-02-24T07:02:24.173Z,97593.05
2023-02-24T07:04:59.318Z,97590.45
2023-02-24T07:07:52.172Z,97591.21
2023-02-24T07:10:27.380Z,97585.59
2023-02-24T07:13:16.195Z,97580.25
2023-02-24T07:15:51.323Z,97579.34
2023-02-24T07:18:43.153Z,97580.40
2023-02-24T07:21:30.207Z,97579.11
2023-02-24T07:24:13.725Z,97578.34
2023-02-24T07:27:01.198Z,97572.83
2023-02-24T07:29:44.193Z,97570.13
2023-02-24T07:32:25.782Z,97566.26
2023-02-24T07:35:07.182Z,97558.70
2023-02-24T07:37:57.156Z,97557.81
2023-02-24T07:40:43.172Z,97555.10
2023-02-24T07:43:24.390Z,97552.00
2023-02-24T07:46:05.247Z,97546.86
2023-02-24T07:48:47.298Z,97544.33
2023-02-24T07:51:31.189Z,97540.28
2023-02-24T07:54:13.100Z,97537.48
2023-02-24T07:57:03.232Z,97541.66
2023-02-24T07:59:54.190Z,97537.54
2023-02-24T08:02:29.493Z,97534.63
2023-02-24T08:05:17.217Z,97531.59
2023-02-24T08:07:59.163Z,97531.64
2023-02-24T08:10:41.101Z,97528.17
2023-02-24T08:13:22.180Z,97523.79
2023-02-24T08:16:03.366Z,97522.50
2023-02-24T08:18:47.407Z,97523.02
2023-02-24T08:21:28.377Z,97525.16
2023-02-24T08:24:11.193Z,97519.79
2023-02-24T08:27:13.263Z,97509.88
2023-02-24T08:30:04.128Z,97508.71
2023-02-24T08:32:59.161Z,97510.92
2023-02-24T08:35:43.143Z,97507.80
2023-02-24T08:38:39.788Z,97505.02
2023-02-24T08:41:24.471Z,97502.66
2023-02-24T08:44:05.300Z,97501.64
2023-02-24T08:46:47.174Z,97494.58
2023-02-24T08:49:40.240Z,97494.29
2023-02-24T08:52:14.681Z,97488.04
2023-02-24T08:55:06.185Z,97486.71
2023-02-24T08:57:47.168Z,97489.18
2023-02-24T09:00:48.254Z,97487.26
2023-02-24T09:03:40.181Z,97487.36
2023-02-24T09:06:27.351Z,97484.78
2023-02-24T09:09:24.194Z,97482.21
2023-02-24T09:12:06.305Z,97481.31
2023-02-24T09:14:49.158Z,97480.98
2023-02-24T09:17:41.092Z,97476.09
2023-02-24T09:20:32.161Z,97474.39
2023-02-24T09:23:07.858Z,97472.45
2023-02-24T09:26:01.157Z,97465.52
2023-02-24T09:28:48.863Z,97463.38
2023-02-24T09:31:47.409Z,97464.41
2023-02-24T09:34:30.238Z,97458.24
2023-02-24T09:37:32.199Z,97458.55
2023-02-24T09:40:16.285Z,97453.17
2023-02-24T09:43:05.269Z,97454.63
2023-02-24T09:45:40.527Z,97452.11
2023-02-24T09:48:51.283Z,97446.37
2023-02-24T09:51:49.250Z,97441.73
2023-02-24T09:54:24.851Z,97439.02
2023-02-24T09:57:18.192Z,97436.04
2023-02-24T10:00:30.263Z,97435.13
2023-02-24T10:03:27.163Z,97434.25
2023-02-24T10:06:12.456Z,97437.02
2023-02-24T10:09:18.164Z,97434.31
2023-02-24T10:12:04.533Z,97432.39
2023-02-24T10:15:25.169Z,97423.66
2023-02-24T10:18:53.223Z,97420.01
2023-02-24T10:22:07.162Z,97419.88
2023-02-24T10:25:01.719Z,97418.40
2023-02-24T10:27:52.261Z,97414.02
2023-02-24T10:30:50.401Z,97416.27
2023-02-24T10:33:45.265Z,97412.23
2023-02-24T10:36:42.144Z,97407.82
2023-02-24T10:39:40.161Z,97401.66
2023-02-24T10:42:38.156Z,97395.16
2023-02-24T10:45:24.024Z,97388.92
2023-02-24T10:48:15.517Z,97385.48
2023-02-24T10:51:15.463Z,97382.89
2023-02-24T10:54:21.174Z,97377.00
2023-02-24T10:57:08.298Z,97369.40
2023-02-24T11:00:58.229Z,97361.32
2023-02-24T11:03:43.365Z,97356.66
2023-02-24T11:06:47.156Z,97347.36
2023-02-24T11:09:32.422Z,97340.16
2023-02-24T11:12:46.145Z,97333.55
2023-02-24T11:15:50.898Z,97326.84
2023-02-24T11:18:40.307Z,97318.80
2023-02-24T11:21:19.703Z,97311.95
2023-02-24T11:24:09.136Z,97305.34
2023-02-24T11:27:05.303Z,97300.04
2023-02-24T11:29:56.138Z,97299.48
2023-02-24T11:32:49.973Z,97295.73
2023-02-24T11:35:55.136Z,97292.05
2023-02-24T11:39:08.369Z,97285.53
2023-02-24T11:42:14.774Z,97293.20
2023-02-24T11:45:05.139Z,97279.05
2023-02-24T11:47:50.855Z,97276.71
2023-02-24T11:50:56.214Z,97269.55
2023-02-24T11:53:58.304Z,97265.66
2023-02-24T11:57:06.138Z,97266.48
2023-02-24T11:59:58.141Z,97265.64
2023-02-24T12:02:51.167Z,97258.05
2023-02-24T12:05:37.288Z,97251.60
2023-02-24T12:08:38.151Z,97244.70
2023-02-24T12:11:54.335Z,97244.96
2023-02-24T12:14:41.166Z,97230.80
2023-02-24T12:17:47.395Z,97228.40
2023-02-24T12:20:55.251Z,97228.98
2023-02-24T12:23:41.339Z,97228.33
2023-02-24T12:26:32.253Z,97227.70
2023-02-24T12:29:42.750Z,97223.27
2023-02-24T12:32:37.859Z,97220.56
2023-02-24T12:35:36.143Z,97215.98
2023-02-24T12:38:39.139Z,97210.52
2023-02-24T12:41:39.151Z,97205.24
2023-02-24T12:44:33.151Z,97205.04
2023-02-24T12:47:28.132Z,97205.00
2023-02-24T12:50:23.864Z,97197.89
2023-02-24T12:53:38.218Z,97195.05
2023-02-24T12:56:41.155Z,97191.14
2023-02-24T12:59:32.164Z,97180.05
2023-02-24T13:02:12.016Z,97177.40
2023-02-24T13:05:12.152Z,97171.03
2023-02-24T13:08:16.241Z,97165.43
2023-02-24T13:11:32.232Z,97166.50
2023-02-24T13:14:31.145Z,97162.77
2023-02-24T13:17:17.829Z,97158.96
2023-02-24T13:20:01.148Z,97154.30
2023-02-24T13:22:56.125Z,97158.90
2023-02-24T13:25:49.138Z,97155.86
2023-02-24T13:28:44.152Z,97149.23
2023-02-24T13:31:23.897Z,97145.82
2023-02-24T13:34:36.139Z,97138.55
2023-02-24T13:37:11.672Z,97134.66
2023-02-24T13:39:59.657Z,97135.17
2023-02-24T13:42:38.270Z,97129.32
2023-02-24T13:45:28.132Z,97131.00
2023-02-24T13:48:02.260Z,97126.79
2023-02-24T13:51:25.193Z,97121.20
2023-02-24T13:54:32.127Z,97119.73
2023-02-24T13:57:44.141Z,97112.25
2023-02-24T14:00:32.696Z,97112.32
2023-02-24T14:03:23.148Z,97106.11
2023-02-24T14:06:05.323Z,97101.30
2023-02-24T14:08:46.143Z,97103.40
2023-02-24T14:11:31.352Z,97100.86
2023-02-24T14:14:12.357Z,97097.27
2023-02-24T14:16:58.678Z,97098.19
2023-02-24T14:19:40.264Z,97096.17
2023-02-24T14:22:34.348Z,97092.08
2023-02-24T14:25:25.339Z,97087.94
2023-02-24T14:28:13.129Z,97085.20
2023-02-24T14:30:48.458Z,97082.53
2023-02-24T14:33:40.258Z,97083.94
2023-02-24T14:36:32.183Z,97084.27
2023-02-24T14:39:25.283Z,97087.48
2023-02-24T14:42:14.593Z,97087.63
2023-02-24T14:45:04.217Z,97089.64
2023-02-24T14:47:39.318Z,97080.02
2023-02-24T14:50:33.212Z,97069.41
2023-02-24T14:53:15.482Z,97068.36
2023-02-24T14:56:07.419Z,97063.60
2023-02-24T14:58:47.958Z,97047.71
2023-02-24T15:01:49.754Z,97036.30
2023-02-24T15:04:37.199Z,97018.86
2023-02-24T15:08:01.574Z,97027.27
2023-02-24T15:11:00.253Z,97037.33
2023-02-24T15:13:59.233Z,97038.05
2023-02-24T15:16:42.558Z,97031.05
2023-02-24T15:20:01.674Z,97021.95
2023-02-24T15:23:03.216Z,97019.77
2023-02-24T15:25:59.240Z,97015.84
2023-02-24T15:28:47.206Z,97011.84
2023-02-24T15:31:33.304Z,97015.95
2023-02-24T15:34:33.154Z,97019.87
2023-02-24T15:37:31.110Z,97016.68
2023-02-24T15:40:21.005Z,97010.99
2023-02-24T15:43:17.286Z,97007.27
2023-02-24T15:45:59.114Z,97000.23
2023-02-24T15:48:57.120Z,97003.30
2023-02-24T15:51:54.319Z,97005.27
2023-02-24T15:54:43.350Z,97008.88
2023-02-24T15:57:38.269Z,97009.78
2023-02-24T16:00:30.128Z,97006.39
2023-02-24T16:03:12.119Z,97006.70
2023-02-24T16:06:07.188Z,97009.95
2023-02-24T16:08:56.277Z,97005.70
2023-02-24T16:11:34.303Z,97012.77
2023-02-24T16:14:24.185Z,97016.20
2023-02-24T16:17:06.579Z,97016.95
2023-02-24T16:19:48.339Z,97017.65
2023-02-24T16:22:30.252Z,97013.85
2023-02-24T16:25:12.120Z,97011.54
2023-02-24T16:27:57.524Z,97005.96
2023-02-24T16:30:39.223Z,96997.63
2023-02-24T16:33:23.916Z,97000.16
2023-02-24T16:36:06.774Z,97001.04
2023-02-24T16:38:53.408Z,96988.80
2023-02-24T16:41:36.126Z,96978.25
2023-02-24T16:44:24.117Z,96973.42
2023-02-24T16:47:05.129Z,96972.79
2023-02-24T16:49:47.267Z,96964.11
2023-02-24T16:52:30.193Z,96966.25
2023-02-24T16:55:13.948Z,96974.30
2023-02-24T16:57:55.094Z,96973.05
2023-02-24T17:00:43.157Z,96975.32
2023-02-24T17:03:22.728Z,96971.64
2023-02-24T17:06:11.151Z,96964.67
2023-02-24T17:08:47.925Z,96960.54
2023-02-24T17:11:43.238Z,96956.76
2023-02-24T17:14:27.117Z,96950.34
2023-02-24T17:17:15.380Z,96955.10
2023-02-24T17:19:58.195Z,96947.85
2023-02-24T17:22:40.343Z,96933.46
2023-02-24T17:25:25.176Z,96935.81
2023-02-24T17:28:08.332Z,96939.28
2023-02-24T17:30:49.237Z,96937.45
2023-02-24T17:33:30.776Z,96933.83
2023-02-24T17:36:13.120Z,96927.18
2023-02-24T17:38:56.473Z,96922.69
2023-02-24T17:41:39.173Z,96917.11
2023-02-24T17:44:20.300Z,96914.85
2023-02-24T17:47:01.198Z,96908.93
2023-02-24T17:49:42.261Z,96906.83
2023-02-24T17:52:24.113Z,96905.55
2023-02-24T17:55:13.333Z,96905.14
2023-02-24T17:57:47.576Z,96906.29
2023-02-24T18:00:36.975Z,96903.14
2023-02-24T18:03:12.399Z,96898.14
2023-02-24T18:06:01.140Z,96896.52
2023-02-24T18:08:44.102Z,96889.05
2023-02-24T18:11:35.483Z,96884.92
2023-02-24T18:14:13.411Z,96871.91
2023-02-24T18:17:07.252Z,96863.47
2023-02-24T18:19:49.981Z,96866.12
2023-02-24T18:22:33.265Z,96861.20
2023-02-24T18:25:21.215Z,96858.68
2023-02-24T18:28:04.251Z,96853.19
2023-02-24T18:30:46.339Z,96847.17
2023-02-24T18:33:41.624Z,96842.39
2023-02-24T18:36:19.934Z,96848.95
2023-02-24T18:39:11.103Z,96851.95
2023-02-24T18:41:45.614Z,96852.34
2023-02-24T18:44:33.203Z,96856.49
2023-02-24T18:47:10.337Z,96854.47
2023-02-24T18:49:59.492Z,96852.73
2023-02-24T18:52:34.987Z,96849.73
2023-02-24T18:55:27.572Z,96849.96
2023-02-24T18:58:02.997Z,96846.73
2023-02-24T19:00:59.404Z,96848.35
2023-02-24T19:03:41.151Z,96849.16
2023-02-24T19:06:23.673Z,96845.42
2023-02-24T19:09:16.200Z,96845.23
2023-02-24T19:12:05.220Z,96848.27
2023-02-24T19:14:46.220Z,96859.92
2023-02-24T19:17:27.583Z,96867.54
2023-02-24T19:20:09.136Z,96870.73
2023-02-24T19:22:52.631Z,96857.84
2023-02-24T19:25:35.164Z,96850.72
2023-02-24T19:28:16.824Z,96845.28
2023-02-24T19:32:15.245Z,96836.19
2023-02-24T19:34:50.560Z,96826.76
2023-02-24T19:37:38.100Z,96818.19
2023-02-24T19:40:13.032Z,96815.70
2023-02-24T19:43:01.134Z,96810.64
2023-02-24T19:45:35.896Z,96810.42
2023-02-24T19:48:24.163Z,96804.17
2023-02-24T19:50:58.549Z,96801.77
2023-02-24T19:53:46.097Z,96794.87
2023-02-24T19:56:33.212Z,96790.27
2023-02-24T19:59:22.103Z,96776.16
2023-02-24T20:01:56.725Z,96773.40
2023-02-24T20:04:46.369Z,96766.58
2023-02-24T20:07:29.410Z,96765.63
2023-02-24T20:10:13.530Z,96757.87
2023-02-24T20:12:59.168Z,96749.08
2023-02-24T20:15:43.246Z,96746.90
2023-02-24T20:18:25.098Z,96745.81
2023-02-24T20:21:14.157Z,96751.38
2023-02-24T20:23:48.520Z,96741.39
2023-02-24T20:26:36.124Z,96740.46
2023-02-24T20:29:11.628Z,96742.33
2023-02-24T20:32:00.226Z,96734.46
2023-02-24T20:34:36.995Z,96721.36
2023-02-24T20:37:26.218Z,96697.33
2023-02-24T20:40:00.506Z,96693.02
2023-02-24T20:42:48.088Z,96704.30
2023-02-24T20:45:36.098Z,96705.41
2023-02-24T20:48:11.227Z,96698.83
2023-02-24T20:50:59.084Z,96699.15
2023-02-24T20:53:36.418Z,96698.31
2023-02-24T20:56:29.089Z,96689.89
2023-02-24T20:59:06.266Z,96676.02
2023-02-24T21:01:55.718Z,96665.48
2023-02-24T21:04:37.145Z,96660.38
2023-02-24T21:07:32.198Z,96659.05
2023-02-24T21:10:29.096Z,96648.50
2023-02-24T21:13:17.209Z,96639.46
2023-02-24T21:16:06.176Z,96635.34
2023-02-24T21:19:03.195Z,96624.45
2023-02-24T21:21:51.089Z,96609.71
2023-02-24T21:24:26.207Z,96604.42
2023-02-24T21:27:14.089Z,96611.97
2023-02-24T21:29:49.215Z,96613.73
2023-02-24T21:32:37.174Z,96614.41
2023-02-24T21:35:12.797Z,96610.98
2023-02-24T21:38:01.068Z,96606.71
2023-02-24T21:40:42.087Z,96596.67
2023-02-24T21:43:37.068Z,96584.81
2023-02-24T21:46:25.433Z,96571.58
2023-02-24T21:49:02.269Z,96565.59
2023-02-24T21:51:50.125Z,96561.21
2023-02-24T21:54:33.220Z,96549.67
2023-02-24T21:57:28.144Z,96545.99
2023-02-24T22:00:25.082Z,96537.64
2023-02-24T22:03:08.148Z,96534.84
2023-02-24T22:06:03.086Z,96527.89
2023-02-24T22:08:52.072Z,96525.90
2023-02-24T22:11:28.254Z,96528.38
2023-02-24T22:14:18.270Z,96521.35
2023-02-24T22:17:00.268Z,96512.66
2023-02-24T22:19:55.078Z,96508.20
2023-02-24T22:22:47.168Z,96505.25
2023-02-24T22:25:25.034Z,96503.17
2023-02-24T22:28:14.081Z,96496.04
2023-02-24T22:30:56.195Z,96486.33
2023-02-24T22:33:49.080Z,96477.11
2023-02-24T22:36:29.256Z,96469.63
2023-02-24T22:39:17.196Z,96466.66
2023-02-24T22:41:52.434Z,96461.55
2023-02-24T22:44:41.092Z,96457.30
2023-02-24T22:47:17.125Z,96457.42
2023-02-24T22:50:05.116Z,96452.60
2023-02-24T22:52:47.083Z,96451.15
2023-02-24T22:55:42.066Z,96457.15
2023-02-24T22:58:31.090Z,96454.99
2023-02-24T23:01:06.251Z,96448.65
2023-02-24T23:03:54.157Z,96445.52
2023-02-24T23:06:38.076Z,96444.63
2023-02-24T23:09:33.089Z,96456.89
2023-02-24T23:12:22.080Z,96459.27
2023-02-24T23:14:57.190Z,96463.77
2023-02-24T23:17:45.092Z,96468.89
2023-02-24T23:20:20.211Z,96464.48
2023-02-24T23:23:09.282Z,96479.41
2023-02-24T23:25:52.271Z,96469.64
2023-02-24T23:28:42.137Z,96477.09
2023-02-24T23:31:17.328Z,96468.05
2023-02-24T23:34:05.059Z,96456.23
2023-02-24T23:36:56.084Z,96446.31
2023-02-24T23:39:30.464Z,96443.64
2023-02-24T23:42:18.084Z,96434.29
2023-02-24T23:44:52.908Z,96441.69
2023-02-24T23:47:41.065Z,96440.23
2023-02-24T23:50:22.216Z,96436.98
2023-02-24T23:53:05.240Z,96436.47
2023-02-24T23:55:47.072Z,96430.11
2023-02-24T23:58:35.062Z,96434.23
